Time;durP1;ratioP1;P1;durP2;ratioP2;P2;SDS_P1;SDS_P2;PMS_P1;PMS_P2;Temp;Humidity;BMP_temperature;BMP_pressure;BME280_temperature;BME280_humidity;BME280_pressure;Samples;Min_cycle;Max_cycle;Signal;HPM_P1;HPM_P2
2023/07/31 00:01:07;;;;;;;19.00;6.95;;;;;;;;;;5091161;28;20146;-71
2023/07/31 00:03:33;;;;;;;17.05;7.20;;;;;;;;;;5092554;28;20047;-69
2023/07/31 00:05:59;;;;;;;10.13;5.45;;;;;;;;;;5092411;28;20032;-69
2023/07/31 00:08:25;;;;;;;10.20;5.65;;;;;;;;;;5092535;28;20028;-70
2023/07/31 00:10:52;;;;;;;11.80;5.70;;;;;;;;;;5092423;28;20028;-71
2023/07/31 00:13:18;;;;;;;11.90;5.65;;;;;;;;;;5074617;28;20063;-70
2023/07/31 00:15:44;;;;;;;20.50;7.57;;;;;;;;;;5073887;28;20509;-70
2023/07/31 00:18:10;;;;;;;31.25;12.05;;;;;;;;;;5092220;28;20036;-70
2023/07/31 00:20:37;;;;;;;40.45;15.55;;;;;;;;;;5073725;28;20055;-70
2023/07/31 00:23:03;;;;;;;42.90;13.93;;;;;;;;;;5091966;28;20337;-70
2023/07/31 00:25:29;;;;;;;52.88;14.25;;;;;;;;;;5090861;28;20042;-70
2023/07/31 00:27:55;;;;;;;63.33;15.88;;;;;;;;;;5073433;28;20032;-70
2023/07/31 00:30:22;;;;;;;57.83;14.80;;;;;;;;;;5073940;28;20067;-70
2023/07/31 00:32:48;;;;;;;64.35;17.17;;;;;;;;;;5073835;28;20028;-70
2023/07/31 00:35:14;;;;;;;74.22;18.58;;;;;;;;;;5091886;28;20041;-70
2023/07/31 00:37:40;;;;;;;64.35;15.82;;;;;;;;;;5091812;28;20051;-72
2023/07/31 00:40:07;;;;;;;64.93;15.73;;;;;;;;;;5091410;28;20036;-70
2023/07/31 00:42:33;;;;;;;37.50;10.15;;;;;;;;;;5091372;28;20107;-71
2023/07/31 00:44:59;;;;;;;37.03;10.40;;;;;;;;;;5056753;28;20047;-69
2023/07/31 01:31:35;;;;;;;30.15;9.38;;;;;;;;;;5087755;28;20024;-70
2023/07/31 01:34:02;;;;;;;46.53;12.80;;;;;;;;;;5091024;28;20035;-70
2023/07/31 01:36:29;;;;;;;56.55;13.30;;;;;;;;;;5090478;28;20051;-70
2023/07/31 01:39:02;;;;;;;63.33;14.80;;;;;;;;;;5091728;28;20032;-70
2023/07/31 01:41:28;;;;;;;64.68;15.30;;;;;;;;;;5073684;28;20116;-70
2023/07/31 01:43:54;;;;;;;62.35;16.02;;;;;;;;;;5073523;28;20039;-69
2023/07/31 01:46:21;;;;;;;62.53;15.57;;;;;;;;;;5091764;28;20047;-69
2023/07/31 01:48:47;;;;;;;54.63;14.73;;;;;;;;;;5072879;28;20039;-70
2023/07/31 01:51:13;;;;;;;57.28;15.52;;;;;;;;;;5091727;28;20040;-70
2023/07/31 01:53:39;;;;;;;72.40;17.48;;;;;;;;;;5091732;28;20071;-69
2023/07/31 01:56:05;;;;;;;70.82;15.02;;;;;;;;;;5091574;28;20078;-69
2023/07/31 01:58:33;;;;;;;63.55;13.45;;;;;;;;;;5073375;28;20439;-69
2023/07/31 02:00:59;;;;;;;54.60;13.65;;;;;;;;;;5091526;28;20031;-69
2023/07/31 02:03:26;;;;;;;54.65;13.32;;;;;;;;;;5091784;28;20032;-69
2023/07/31 02:05:54;;;;;;;49.10;14.30;;;;;;;;;;5072972;28;20133;-70
2023/07/31 02:08:20;;;;;;;50.63;12.48;;;;;;;;;;5072872;28;20110;-71
2023/07/31 02:10:46;;;;;;;60.67;14.90;;;;;;;;;;5072695;28;20029;-71
2023/07/31 02:13:13;;;;;;;58.95;13.75;;;;;;;;;;5090695;28;20084;-71
2023/07/31 02:15:39;;;;;;;54.80;14.60;;;;;;;;;;5090992;28;20036;-71
2023/07/31 02:18:05;;;;;;;53.47;14.35;;;;;;;;;;5090698;28;20074;-71
2023/07/31 02:20:34;;;;;;;71.97;15.10;;;;;;;;;;5056211;28;20074;-71
2023/07/31 02:23:02;;;;;;;73.97;14.57;;;;;;;;;;5070256;28;20032;-71
2023/07/31 02:25:28;;;;;;;59.72;13.50;;;;;;;;;;5052850;28;20020;-71
2023/07/31 02:27:54;;;;;;;69.55;14.93;;;;;;;;;;5036003;28;20047;-71
2023/07/31 02:30:20;;;;;;;76.82;15.05;;;;;;;;;;5070536;28;20044;-71
2023/07/31 02:32:46;;;;;;;57.55;12.82;;;;;;;;;;5036161;28;20129;-71
2023/07/31 02:35:15;;;;;;;66.45;15.85;;;;;;;;;;5070470;28;20063;-71
2023/07/31 02:37:41;;;;;;;71.35;15.13;;;;;;;;;;5052568;28;20037;-70
2023/07/31 02:40:08;;;;;;;64.00;13.90;;;;;;;;;;5068906;28;20044;-70
2023/07/31 02:42:34;;;;;;;54.50;12.93;;;;;;;;;;5052330;28;20101;-70
2023/07/31 02:45:00;;;;;;;64.88;13.95;;;;;;;;;;5070321;28;20024;-70
2023/07/31 02:47:26;;;;;;;68.63;13.95;;;;;;;;;;5071278;28;20028;-70
2023/07/31 02:49:52;;;;;;;68.40;14.02;;;;;;;;;;5073054;28;20153;-70
2023/07/31 02:52:19;;;;;;;71.07;16.45;;;;;;;;;;5092482;28;20036;-69
2023/07/31 02:54:45;;;;;;;70.95;15.73;;;;;;;;;;5072896;28;20040;-69
2023/07/31 02:57:11;;;;;;;72.88;16.17;;;;;;;;;;5072116;28;20028;-70
2023/07/31 02:59:38;;;;;;;64.97;14.20;;;;;;;;;;5072035;28;20442;-69
2023/07/31 03:02:04;;;;;;;54.60;14.75;;;;;;;;;;5090291;28;20028;-69
2023/07/31 03:04:30;;;;;;;64.72;16.30;;;;;;;;;;5072265;28;20027;-69
2023/07/31 03:06:56;;;;;;;67.28;15.35;;;;;;;;;;5072222;28;20040;-69
2023/07/31 03:09:22;;;;;;;72.30;15.43;;;;;;;;;;5090427;28;20088;-69
2023/07/31 03:11:49;;;;;;;63.95;14.38;;;;;;;;;;5072102;28;20207;-70
2023/07/31 03:14:15;;;;;;;71.82;16.20;;;;;;;;;;5072440;28;20081;-69
2023/07/31 03:16:41;;;;;;;68.00;16.92;;;;;;;;;;5090158;28;20028;-70
2023/07/31 03:19:07;;;;;;;59.85;16.27;;;;;;;;;;5090187;28;20039;-70
2023/07/31 03:21:33;;;;;;;61.88;15.55;;;;;;;;;;5091743;28;20024;-70
2023/07/31 03:23:59;;;;;;;48.88;14.10;;;;;;;;;;5066565;28;20035;-69
2023/07/31 03:26:26;;;;;;;54.03;14.45;;;;;;;;;;5056035;28;20032;-70
2023/07/31 03:28:52;;;;;;;60.33;15.25;;;;;;;;;;5055944;28;20029;-70
2023/07/31 03:31:18;;;;;;;54.22;13.23;;;;;;;;;;5055675;28;20067;-70
2023/07/31 03:33:44;;;;;;;53.30;14.60;;;;;;;;;;5056167;28;20033;-69
2023/07/31 03:36:10;;;;;;;53.30;14.13;;;;;;;;;;5073889;28;20047;-72
2023/07/31 03:38:36;;;;;;;46.90;13.77;;;;;;;;;;5073864;28;20127;-70
2023/07/31 03:41:02;;;;;;;57.67;14.45;;;;;;;;;;5055481;28;20058;-69
2023/07/31 03:43:29;;;;;;;55.28;13.95;;;;;;;;;;5055939;28;20060;-69
2023/07/31 03:45:55;;;;;;;50.22;13.13;;;;;;;;;;5073615;28;20043;-71
2023/07/31 03:48:21;;;;;;;47.63;11.75;;;;;;;;;;5039277;28;20046;-71
2023/07/31 03:50:47;;;;;;;56.70;14.20;;;;;;;;;;5055732;28;20268;-71
2023/07/31 03:53:14;;;;;;;54.20;13.18;;;;;;;;;;5055637;28;20075;-69
2023/07/31 03:55:40;;;;;;;51.28;14.00;;;;;;;;;;5073328;28;20032;-71
2023/07/31 03:58:06;;;;;;;47.15;13.18;;;;;;;;;;5073597;28;20143;-70
2023/07/31 04:00:32;;;;;;;58.05;15.38;;;;;;;;;;5055328;28;20041;-69
2023/07/31 04:02:59;;;;;;;66.00;15.23;;;;;;;;;;5073251;28;20093;-69
2023/07/31 04:05:25;;;;;;;70.05;13.65;;;;;;;;;;5072998;28;20040;-69
2023/07/31 04:07:51;;;;;;;60.83;13.90;;;;;;;;;;5073000;28;20051;-69
2023/07/31 04:10:17;;;;;;;67.32;14.40;;;;;;;;;;5055327;28;20024;-70
2023/07/31 04:12:43;;;;;;;61.30;17.67;;;;;;;;;;5055287;28;20484;-70
2023/07/31 04:15:09;;;;;;;55.95;14.43;;;;;;;;;;5072236;28;20101;-70
2023/07/31 04:17:36;;;;;;;51.35;14.98;;;;;;;;;;5055222;28;20447;-70
2023/07/31 04:20:02;;;;;;;51.97;15.35;;;;;;;;;;5072987;28;20029;-70
2023/07/31 04:22:28;;;;;;;60.75;16.23;;;;;;;;;;5086639;28;20032;-69
2023/07/31 04:24:54;;;;;;;55.53;13.90;;;;;;;;;;5092830;28;20107;-69
2023/07/31 04:27:20;;;;;;;47.13;13.73;;;;;;;;;;5093195;28;20032;-70
2023/07/31 04:29:47;;;;;;;60.78;14.73;;;;;;;;;;5092732;28;20324;-70
2023/07/31 04:32:16;;;;;;;53.67;15.35;;;;;;;;;;5073993;28;20040;-69
2023/07/31 04:34:42;;;;;;;45.83;13.48;;;;;;;;;;5092749;28;20755;-70
2023/07/31 04:37:08;;;;;;;50.63;15.52;;;;;;;;;;5092833;28;20031;-70
2023/07/31 04:39:34;;;;;;;43.25;13.50;;;;;;;;;;5058241;28;20530;-70
2023/07/31 04:42:00;;;;;;;57.20;16.08;;;;;;;;;;5092903;28;20141;-70
2023/07/31 04:44:28;;;;;;;50.30;14.70;;;;;;;;;;5092819;28;20409;-70
2023/07/31 04:46:54;;;;;;;52.92;15.13;;;;;;;;;;5074580;28;20489;-70
2023/07/31 04:49:20;;;;;;;49.25;16.23;;;;;;;;;;5074647;28;20028;-70
2023/07/31 04:51:46;;;;;;;48.10;13.68;;;;;;;;;;5092491;28;20444;-69
2023/07/31 04:54:14;;;;;;;48.65;14.10;;;;;;;;;;5092559;28;20036;-70
2023/07/31 04:56:41;;;;;;;44.67;14.75;;;;;;;;;;5074062;28;20047;-70
2023/07/31 04:59:07;;;;;;;49.17;15.35;;;;;;;;;;5092262;28;20547;-70
2023/07/31 05:01:33;;;;;;;48.95;15.88;;;;;;;;;;5074383;28;20385;-70
2023/07/31 05:03:59;;;;;;;43.42;14.50;;;;;;;;;;5092440;28;20040;-69
2023/07/31 05:06:25;;;;;;;37.58;14.32;;;;;;;;;;5091931;28;20028;-69
2023/07/31 05:08:51;;;;;;;50.10;15.93;;;;;;;;;;5092233;28;20063;-69
2023/07/31 05:11:18;;;;;;;32.08;13.02;;;;;;;;;;5092281;28;20048;-71
2023/07/31 05:13:44;;;;;;;39.35;14.77;;;;;;;;;;5073899;28;20040;-70
2023/07/31 05:16:10;;;;;;;35.63;12.40;;;;;;;;;;5092048;28;20078;-70
2023/07/31 05:18:36;;;;;;;39.13;13.35;;;;;;;;;;5074288;28;20040;-70
2023/07/31 05:21:02;;;;;;;36.60;12.70;;;;;;;;;;5091704;28;20036;-70
2023/07/31 05:23:29;;;;;;;34.55;12.40;;;;;;;;;;5073563;28;20474;-70
2023/07/31 05:25:55;;;;;;;33.60;12.32;;;;;;;;;;5091898;28;20074;-70
2023/07/31 05:28:22;;;;;;;28.55;10.70;;;;;;;;;;5092099;28;20024;-70
2023/07/31 05:30:48;;;;;;;27.65;10.68;;;;;;;;;;5091905;28;20056;-69
2023/07/31 05:33:14;;;;;;;22.77;9.65;;;;;;;;;;5057107;28;20083;-69
2023/07/31 05:35:40;;;;;;;26.92;9.82;;;;;;;;;;5073530;28;20328;-71
2023/07/31 05:38:06;;;;;;;26.20;10.07;;;;;;;;;;5092026;28;20025;-70
2023/07/31 05:40:33;;;;;;;30.35;10.25;;;;;;;;;;5091722;28;20075;-70
2023/07/31 05:42:59;;;;;;;26.02;10.02;;;;;;;;;;5073324;28;20044;-70
2023/07/31 05:45:26;;;;;;;26.60;10.07;;;;;;;;;;5073069;28;20028;-70
2023/07/31 05:47:52;;;;;;;29.90;10.75;;;;;;;;;;5091704;28;20042;-69
2023/07/31 05:50:18;;;;;;;33.33;10.77;;;;;;;;;;5073539;28;20032;-69
2023/07/31 05:52:44;;;;;;;36.30;11.70;;;;;;;;;;5073355;28;20051;-69
2023/07/31 05:55:10;;;;;;;33.90;10.45;;;;;;;;;;5091615;28;20373;-69
2023/07/31 05:57:36;;;;;;;29.27;10.82;;;;;;;;;;5091420;28;20028;-69
2023/07/31 06:00:03;;;;;;;32.92;11.63;;;;;;;;;;5091165;28;20393;-69
2023/07/31 06:02:33;;;;;;;28.75;11.40;;;;;;;;;;5091426;28;20086;-69
2023/07/31 06:05:00;;;;;;;28.77;10.65;;;;;;;;;;5072914;28;20039;-69
2023/07/31 06:07:26;;;;;;;32.10;10.48;;;;;;;;;;5091376;28;20032;-70
2023/07/31 06:09:54;;;;;;;30.85;11.57;;;;;;;;;;5091381;28;20129;-70
2023/07/31 06:12:20;;;;;;;23.02;9.20;;;;;;;;;;5073637;28;20044;-70
2023/07/31 06:14:46;;;;;;;30.73;11.98;;;;;;;;;;5090932;28;20051;-70
2023/07/31 06:17:13;;;;;;;29.90;9.52;;;;;;;;;;5091037;28;20187;-70
2023/07/31 06:19:39;;;;;;;30.85;8.80;;;;;;;;;;5072530;28;20068;-70
2023/07/31 06:22:05;;;;;;;18.27;7.80;;;;;;;;;;5091035;28;20060;-69
2023/07/31 06:24:31;;;;;;;26.17;9.20;;;;;;;;;;5090802;28;20421;-70
2023/07/31 06:26:57;;;;;;;17.65;8.27;;;;;;;;;;5090988;28;20030;-70
2023/07/31 06:29:23;;;;;;;25.38;8.80;;;;;;;;;;5072956;28;20131;-70
2023/07/31 06:31:49;;;;;;;23.00;9.15;;;;;;;;;;5072854;28;20098;-69
2023/07/31 06:34:16;;;;;;;21.55;7.78;;;;;;;;;;5072810;28;20031;-69
2023/07/31 06:36:42;;;;;;;16.90;7.65;;;;;;;;;;5072537;28;20097;-69
2023/07/31 06:39:08;;;;;;;16.58;7.18;;;;;;;;;;5072765;28;20036;-69
2023/07/31 06:41:35;;;;;;;27.95;8.35;;;;;;;;;;5072884;28;20043;-68
2023/07/31 06:44:05;;;;;;;;;;;;;;;;;;5091719;28;20111;-69
2023/07/31 06:46:31;;;;;;;22.75;8.60;;;;;;;;;;5090811;28;19958;-70
2023/07/31 06:48:58;;;;;;;16.40;7.68;;;;;;;;;;5072465;28;20028;-69
2023/07/31 06:51:24;;;;;;;18.13;7.63;;;;;;;;;;5090668;28;20028;-69
2023/07/31 06:53:50;;;;;;;18.02;7.47;;;;;;;;;;5090902;28;20042;-69
2023/07/31 06:56:16;;;;;;;22.10;7.95;;;;;;;;;;5090763;28;20046;-68
2023/07/31 06:58:42;;;;;;;15.77;7.78;;;;;;;;;;5090487;28;20090;-68
2023/07/31 07:01:09;;;;;;;20.60;9.15;;;;;;;;;;5090354;28;20055;-69
2023/07/31 07:03:35;;;;;;;14.65;7.78;;;;;;;;;;5072357;28;20112;-70
2023/07/31 07:06:01;;;;;;;12.40;6.78;;;;;;;;;;5090004;28;20032;-68
2023/07/31 07:08:27;;;;;;;12.55;6.43;;;;;;;;;;5090438;28;20040;-69
2023/07/31 07:10:53;;;;;;;17.90;7.32;;;;;;;;;;5072664;28;20040;-69
2023/07/31 07:13:19;;;;;;;17.20;6.45;;;;;;;;;;5090312;28;20107;-68
2023/07/31 07:15:49;;;;;;;14.77;6.07;;;;;;;;;;5090352;28;20108;-69
2023/07/31 07:18:16;;;;;;;11.98;5.63;;;;;;;;;;5090129;28;20039;-69
2023/07/31 07:20:47;;;;;;;11.63;5.38;;;;;;;;;;5090249;28;20040;-69
2023/07/31 07:23:13;;;;;;;15.00;5.20;;;;;;;;;;5090448;28;20072;-70
2023/07/31 07:25:39;;;;;;;8.98;4.85;;;;;;;;;;5090007;28;20600;-69
2023/07/31 07:28:06;;;;;;;9.88;4.78;;;;;;;;;;5072289;28;20047;-69
2023/07/31 07:30:33;;;;;;;10.63;5.07;;;;;;;;;;5089994;28;20055;-69
2023/07/31 07:32:59;;;;;;;10.18;4.80;;;;;;;;;;5090062;28;20036;-69
2023/07/31 07:35:25;;;;;;;10.20;4.70;;;;;;;;;;5089860;28;20043;-69
2023/07/31 07:37:51;;;;;;;13.75;5.07;;;;;;;;;;5071544;28;20036;-68
2023/07/31 07:40:17;;;;;;;10.60;4.72;;;;;;;;;;5071988;28;20145;-69
2023/07/31 07:42:43;;;;;;;15.95;4.70;;;;;;;;;;5090463;28;20028;-69
2023/07/31 07:45:10;;;;;;;12.27;4.82;;;;;;;;;;5089687;28;20515;-69
2023/07/31 07:47:36;;;;;;;10.90;4.63;;;;;;;;;;5090283;28;20115;-69
2023/07/31 07:50:02;;;;;;;6.88;3.95;;;;;;;;;;5089930;28;20028;-68
2023/07/31 07:52:28;;;;;;;9.90;4.10;;;;;;;;;;5089974;28;20032;-69
2023/07/31 07:54:54;;;;;;;6.47;3.80;;;;;;;;;;5089907;28;20051;-69
2023/07/31 07:57:20;;;;;;;5.63;3.30;;;;;;;;;;5090019;28;20040;-69
2023/07/31 07:59:47;;;;;;;8.02;3.35;;;;;;;;;;5089868;28;20047;-69
2023/07/31 08:02:13;;;;;;;9.95;3.70;;;;;;;;;;5089916;28;20061;-68
2023/07/31 08:04:39;;;;;;;7.97;3.80;;;;;;;;;;5089603;28;20046;-69
2023/07/31 08:07:05;;;;;;;6.60;3.60;;;;;;;;;;5072276;28;20485;-69
2023/07/31 08:09:31;;;;;;;5.50;3.30;;;;;;;;;;5093615;28;20055;-69
2023/07/31 08:12:01;;;;;;;5.53;3.38;;;;;;;;;;5093410;28;20074;-69
2023/07/31 08:14:28;;;;;;;5.82;3.50;;;;;;;;;;5074816;28;20138;-69
2023/07/31 08:16:54;;;;;;;5.63;3.17;;;;;;;;;;5075581;28;20501;-70
2023/07/31 08:19:20;;;;;;;6.93;3.40;;;;;;;;;;5093600;28;20036;-71
2023/07/31 08:21:46;;;;;;;6.35;3.22;;;;;;;;;;5093373;28;20111;-71
2023/07/31 08:24:12;;;;;;;6.75;3.50;;;;;;;;;;5094340;28;20440;-70
2023/07/31 08:26:38;;;;;;;9.05;3.55;;;;;;;;;;5094165;28;20024;-71
2023/07/31 08:29:04;;;;;;;5.18;3.08;;;;;;;;;;5092924;28;20066;-69
2023/07/31 08:31:31;;;;;;;6.25;3.10;;;;;;;;;;5092803;28;20109;-69
2023/07/31 08:33:57;;;;;;;3.08;2.38;;;;;;;;;;5075067;28;20408;-69
2023/07/31 08:36:23;;;;;;;3.60;2.53;;;;;;;;;;5057907;28;20504;-69
2023/07/31 08:38:50;;;;;;;3.03;2.33;;;;;;;;;;5075169;28;20032;-68
2023/07/31 08:41:19;;;;;;;4.78;2.30;;;;;;;;;;5092943;28;20024;-69
2023/07/31 08:43:50;;;;;;;3.97;2.40;;;;;;;;;;5092998;28;20047;-68
2023/07/31 08:46:16;;;;;;;4.22;2.15;;;;;;;;;;5074699;28;20024;-68
2023/07/31 08:48:43;;;;;;;3.13;2.20;;;;;;;;;;5074804;28;20024;-69
2023/07/31 08:51:10;;;;;;;3.58;2.30;;;;;;;;;;5092837;28;20494;-69
2023/07/31 08:53:36;;;;;;;2.90;2.10;;;;;;;;;;5092738;28;20040;-70
2023/07/31 08:56:03;;;;;;;3.15;2.10;;;;;;;;;;5092542;28;20082;-70
2023/07/31 08:58:31;;;;;;;3.10;2.00;;;;;;;;;;5074839;28;20036;-70
2023/07/31 09:00:58;;;;;;;3.00;1.90;;;;;;;;;;5092558;28;20153;-70
2023/07/31 09:03:25;;;;;;;2.13;1.77;;;;;;;;;;5092665;28;20032;-70
2023/07/31 09:05:52;;;;;;;4.15;2.08;;;;;;;;;;5092239;28;20074;-70
2023/07/31 09:08:21;;;;;;;2.70;2.03;;;;;;;;;;5092527;28;20028;-69
2023/07/31 09:10:49;;;;;;;3.60;2.10;;;;;;;;;;5092516;28;20118;-70
2023/07/31 09:13:16;;;;;;;2.72;1.90;;;;;;;;;;5092551;28;20039;-69
2023/07/31 09:15:44;;;;;;;2.88;2.05;;;;;;;;;;5092158;28;20036;-70
2023/07/31 09:18:10;;;;;;;7.43;1.90;;;;;;;;;;5057290;28;20020;-70
2023/07/31 09:20:37;;;;;;;6.28;2.25;;;;;;;;;;5072416;28;20037;-71
2023/07/31 09:23:08;;;;;;;2.67;1.90;;;;;;;;;;5071828;28;20021;-70
2023/07/31 09:25:34;;;;;;;2.65;2.20;;;;;;;;;;5071751;28;20032;-69
2023/07/31 09:28:01;;;;;;;4.85;2.10;;;;;;;;;;5071660;28;20032;-69
2023/07/31 09:30:27;;;;;;;3.25;2.15;;;;;;;;;;5037058;28;20028;-70
2023/07/31 09:33:05;;;;;;;3.33;2.10;;;;;;;;;;5072102;28;20048;-68
2023/07/31 09:35:33;;;;;;;3.47;2.30;;;;;;;;;;5071277;28;20024;-69
2023/07/31 09:38:00;;;;;;;3.00;2.33;;;;;;;;;;5071409;28;20040;-68
2023/07/31 09:40:27;;;;;;;2.40;2.20;;;;;;;;;;5071474;28;20048;-69
2023/07/31 09:42:54;;;;;;;4.28;2.45;;;;;;;;;;5071649;28;20033;-68
2023/07/31 09:45:20;;;;;;;4.45;3.00;;;;;;;;;;5053532;28;20059;-69
2023/07/31 09:47:50;;;;;;;3.53;2.78;;;;;;;;;;5071187;28;20036;-69
2023/07/31 09:50:16;;;;;;;4.72;2.90;;;;;;;;;;5071091;28;20441;-69
2023/07/31 09:52:43;;;;;;;4.22;2.53;;;;;;;;;;5071069;28;20040;-68
2023/07/31 09:55:09;;;;;;;6.00;2.60;;;;;;;;;;5070981;28;20052;-71
2023/07/31 09:57:46;;;;;;;8.75;4.05;;;;;;;;;;5071854;28;20043;-69
2023/07/31 10:00:13;;;;;;;4.13;2.90;;;;;;;;;;5071276;28;20132;-70
2023/07/31 10:02:41;;;;;;;5.50;3.40;;;;;;;;;;5070776;28;20032;-68
2023/07/31 10:05:08;;;;;;;6.75;3.30;;;;;;;;;;5070574;28;20051;-69
2023/07/31 10:07:39;;;;;;;5.38;4.05;;;;;;;;;;5070863;28;20095;-69
2023/07/31 10:10:07;;;;;;;4.93;4.25;;;;;;;;;;5053090;28;20032;-69
2023/07/31 10:12:34;;;;;;;6.00;3.97;;;;;;;;;;5071687;28;20036;-68
2023/07/31 10:15:01;;;;;;;5.25;4.00;;;;;;;;;;5072796;28;20047;-69
2023/07/31 10:17:27;;;;;;;6.35;3.97;;;;;;;;;;5071161;28;20094;-69
2023/07/31 10:19:54;;;;;;;4.95;3.50;;;;;;;;;;5070826;28;20041;-69
2023/07/31 10:22:20;;;;;;;6.28;4.35;;;;;;;;;;5070869;28;20025;-69
2023/07/31 10:24:47;;;;;;;6.03;4.53;;;;;;;;;;5070549;28;20100;-68
2023/07/31 10:27:13;;;;;;;8.73;4.43;;;;;;;;;;5070483;28;20024;-68
2023/07/31 10:29:40;;;;;;;7.03;4.60;;;;;;;;;;5052211;28;20116;-69
2023/07/31 10:32:10;;;;;;;6.82;4.75;;;;;;;;;;5070109;28;20052;-69
2023/07/31 10:34:37;;;;;;;8.48;4.80;;;;;;;;;;5052092;28;20101;-69
2023/07/31 10:37:22;;;;;;;6.22;4.72;;;;;;;;;;5070362;28;20024;-69
2023/07/31 10:39:57;;;;;;;5.53;3.92;;;;;;;;;;5070750;28;20440;-69
2023/07/31 10:42:34;;;;;;;6.00;4.45;;;;;;;;;;5052155;28;20096;-69
2023/07/31 10:45:01;;;;;;;6.55;5.00;;;;;;;;;;5070225;28;20055;-70
2023/07/31 10:47:27;;;;;;;11.68;6.10;;;;;;;;;;5069907;28;20029;-69
2023/07/31 10:49:53;;;;;;;6.13;4.97;;;;;;;;;;5070205;28;20060;-69
2023/07/31 10:52:26;;;;;;;7.65;4.78;;;;;;;;;;5052565;28;20411;-69
2023/07/31 10:55:11;;;;;;;7.50;4.28;;;;;;;;;;5070099;28;20064;-69
2023/07/31 10:57:37;;;;;;;7.68;4.35;;;;;;;;;;5070052;28;20077;-70
2023/07/31 11:00:20;;;;;;;7.25;4.70;;;;;;;;;;5052182;28;20039;-70
2023/07/31 11:02:58;;;;;;;6.95;4.53;;;;;;;;;;5070124;28;20028;-73
2023/07/31 11:05:43;;;;;;;7.40;4.50;;;;;;;;;;5070059;28;20037;-70
2023/07/31 11:08:16;;;;;;;6.60;4.68;;;;;;;;;;5070741;28;20055;-71
2023/07/31 11:10:43;;;;;;;8.65;4.60;;;;;;;;;;5070567;28;20456;-71
2023/07/31 11:13:10;;;;;;;7.45;4.28;;;;;;;;;;5070178;28;20078;-71
2023/07/31 11:15:36;;;;;;;8.48;5.10;;;;;;;;;;5069729;28;20090;-69
2023/07/31 11:18:07;;;;;;;9.55;5.20;;;;;;;;;;5069748;28;20135;-69
2023/07/31 11:20:34;;;;;;;12.52;5.90;;;;;;;;;;5069887;28;20082;-69
2023/07/31 11:23:04;;;;;;;15.80;6.68;;;;;;;;;;5070024;28;20047;-69
2023/07/31 11:25:33;;;;;;;10.02;6.30;;;;;;;;;;5070323;28;20039;-70
2023/07/31 11:28:06;;;;;;;15.38;6.85;;;;;;;;;;5069799;28;20028;-68
2023/07/31 11:30:32;;;;;;;9.38;5.93;;;;;;;;;;5069683;28;20404;-69
2023/07/31 11:32:59;;;;;;;12.93;5.57;;;;;;;;;;5069823;28;20151;-69
2023/07/31 11:35:25;;;;;;;9.60;4.68;;;;;;;;;;5069761;28;20051;-68
2023/07/31 11:37:51;;;;;;;12.35;5.25;;;;;;;;;;5070049;28;20074;-69
2023/07/31 11:40:19;;;;;;;10.63;5.20;;;;;;;;;;5035271;28;20033;-69
2023/07/31 11:42:46;;;;;;;9.23;4.78;;;;;;;;;;5053686;28;20055;-69
2023/07/31 11:45:12;;;;;;;13.88;5.93;;;;;;;;;;5073614;28;20441;-69
2023/07/31 11:47:38;;;;;;;10.88;5.00;;;;;;;;;;5055685;28;20074;-69
2023/07/31 11:50:05;;;;;;;8.52;4.30;;;;;;;;;;5073462;28;20040;-70
2023/07/31 11:52:34;;;;;;;9.98;5.53;;;;;;;;;;5055640;28;20127;-69
2023/07/31 11:55:00;;;;;;;11.18;6.38;;;;;;;;;;5055672;28;20055;-69
2023/07/31 11:57:28;;;;;;;14.35;7.03;;;;;;;;;;5055436;28;20100;-69
2023/07/31 11:59:54;;;;;;;12.32;6.88;;;;;;;;;;5073300;28;20033;-69
2023/07/31 12:02:20;;;;;;;13.57;7.63;;;;;;;;;;5056006;28;20039;-69
2023/07/31 12:04:48;;;;;;;13.15;7.72;;;;;;;;;;5072901;28;20035;-69
2023/07/31 12:07:14;;;;;;;12.45;7.82;;;;;;;;;;5055206;28;20032;-69
2023/07/31 12:09:51;;;;;;;17.05;8.93;;;;;;;;;;5072983;28;20517;-68
2023/07/31 12:12:26;;;;;;;16.45;9.32;;;;;;;;;;5073111;28;20028;-69
2023/07/31 12:14:52;;;;;;;15.90;9.88;;;;;;;;;;5055227;28;20086;-69
2023/07/31 12:17:20;;;;;;;27.45;10.90;;;;;;;;;;5055382;28;20085;-69
2023/07/31 12:19:46;;;;;;;20.42;11.73;;;;;;;;;;5072758;28;20029;-68
2023/07/31 12:22:13;;;;;;;20.55;10.60;;;;;;;;;;5072598;28;20119;-69
2023/07/31 12:24:40;;;;;;;20.35;9.68;;;;;;;;;;5073225;28;20040;-68
2023/07/31 12:27:13;;;;;;;18.48;10.38;;;;;;;;;;5072955;28;20037;-68
2023/07/31 12:29:40;;;;;;;14.63;10.68;;;;;;;;;;5072856;28;20409;-68
2023/07/31 12:32:22;;;;;;;14.80;10.25;;;;;;;;;;5072398;28;20101;-69
2023/07/31 12:34:48;;;;;;;15.40;9.30;;;;;;;;;;5072730;28;20067;-69
2023/07/31 12:37:15;;;;;;;11.40;8.60;;;;;;;;;;5072799;28;20040;-69
2023/07/31 12:39:41;;;;;;;11.27;8.45;;;;;;;;;;5072493;28;20037;-69
2023/07/31 12:42:07;;;;;;;13.68;8.23;;;;;;;;;;5072557;28;20067;-70
2023/07/31 12:44:33;;;;;;;12.65;8.25;;;;;;;;;;5054623;28;20396;-69
2023/07/31 12:46:59;;;;;;;10.35;7.65;;;;;;;;;;5072605;28;20041;-69
2023/07/31 12:49:25;;;;;;;13.98;7.53;;;;;;;;;;5037912;28;20478;-69
2023/07/31 12:51:53;;;;;;;12.40;7.28;;;;;;;;;;5054698;28;20036;-70
2023/07/31 12:54:20;;;;;;;12.20;7.18;;;;;;;;;;5054971;28;20037;-70
2023/07/31 12:56:46;;;;;;;8.90;6.47;;;;;;;;;;5072560;28;20108;-70
2023/07/31 12:59:12;;;;;;;10.48;6.25;;;;;;;;;;5054809;28;20040;-70
2023/07/31 13:01:38;;;;;;;9.57;6.68;;;;;;;;;;5054307;28;20493;-70
2023/07/31 13:04:04;;;;;;;9.10;7.15;;;;;;;;;;5072164;28;20054;-70
2023/07/31 13:06:30;;;;;;;10.30;6.25;;;;;;;;;;5072044;28;20031;-70
2023/07/31 13:08:56;;;;;;;9.50;5.47;;;;;;;;;;5054580;28;20118;-70
2023/07/31 13:11:23;;;;;;;7.25;5.03;;;;;;;;;;5071876;28;20041;-71
2023/07/31 13:13:49;;;;;;;11.43;5.32;;;;;;;;;;5054342;28;20047;-71
2023/07/31 13:16:15;;;;;;;6.78;4.78;;;;;;;;;;5072218;28;20029;-71
2023/07/31 13:18:41;;;;;;;9.05;5.70;;;;;;;;;;5071453;28;20101;-71
2023/07/31 13:21:07;;;;;;;9.02;5.47;;;;;;;;;;5071641;28;20036;-70
2023/07/31 13:23:33;;;;;;;12.82;6.25;;;;;;;;;;5071925;28;20079;-70
2023/07/31 13:26:01;;;;;;;11.15;6.18;;;;;;;;;;5071759;28;20029;-70
2023/07/31 13:28:27;;;;;;;10.13;5.60;;;;;;;;;;5071648;28;20021;-71
2023/07/31 13:30:53;;;;;;;10.07;5.93;;;;;;;;;;5072126;28;20040;-70
2023/07/31 13:33:19;;;;;;;8.82;5.32;;;;;;;;;;5053467;28;20252;-70
2023/07/31 13:35:45;;;;;;;8.80;5.75;;;;;;;;;;5053709;28;20257;-69
2023/07/31 13:38:11;;;;;;;6.95;4.93;;;;;;;;;;5071608;28;20035;-70
2023/07/31 13:40:39;;;;;;;8.05;4.50;;;;;;;;;;5071224;28;20047;-71
2023/07/31 13:43:05;;;;;;;10.20;5.30;;;;;;;;;;5053849;28;20031;-71
2023/07/31 13:45:31;;;;;;;6.28;4.80;;;;;;;;;;5054163;28;20030;-71
2023/07/31 13:47:57;;;;;;;4.30;3.10;;;;;;;;;;5071160;28;20044;-69
2023/07/31 13:50:25;;;;;;;4.65;2.60;;;;;;;;;;5053669;28;20047;-70
2023/07/31 13:52:51;;;;;;;5.72;3.25;;;;;;;;;;5071591;28;20028;-70
2023/07/31 13:55:17;;;;;;;6.32;3.13;;;;;;;;;;5071412;28;20466;-70
2023/07/31 13:57:43;;;;;;;3.60;2.92;;;;;;;;;;5071320;28;20064;-69
2023/07/31 14:00:09;;;;;;;3.95;3.00;;;;;;;;;;5070583;28;20035;-68
2023/07/31 14:02:36;;;;;;;3.72;2.78;;;;;;;;;;5070798;28;20054;-69
2023/07/31 14:05:02;;;;;;;4.25;3.17;;;;;;;;;;5070335;28;20075;-70
2023/07/31 14:07:29;;;;;;;3.40;2.78;;;;;;;;;;5053399;28;20104;-70
2023/07/31 14:09:55;;;;;;;4.45;2.00;;;;;;;;;;5052791;28;20055;-70
2023/07/31 14:12:21;;;;;;;1.90;1.70;;;;;;;;;;5083966;28;20111;-69
2023/07/31 14:14:47;;;;;;;4.60;2.40;;;;;;;;;;5072922;28;20039;-69
2023/07/31 14:17:14;;;;;;;2.78;2.47;;;;;;;;;;5072842;28;20036;-69
2023/07/31 14:19:40;;;;;;;2.80;2.08;;;;;;;;;;5090983;28;20077;-70
2023/07/31 14:22:06;;;;;;;3.20;2.42;;;;;;;;;;5091147;28;20028;-70
2023/07/31 14:24:32;;;;;;;4.72;2.60;;;;;;;;;;5091455;28;20039;-71
2023/07/31 14:26:58;;;;;;;4.28;2.60;;;;;;;;;;5056177;28;20043;-69
2023/07/31 14:29:25;;;;;;;2.42;1.83;;;;;;;;;;5073004;28;20393;-70
2023/07/31 14:31:51;;;;;;;2.55;1.83;;;;;;;;;;5072505;28;20506;-69
2023/07/31 14:34:17;;;;;;;3.00;1.80;;;;;;;;;;5090797;28;20028;-69
2023/07/31 14:36:44;;;;;;;2.72;2.05;;;;;;;;;;5090498;28;20507;-71
2023/07/31 14:39:10;;;;;;;4.03;2.00;;;;;;;;;;5091323;28;20085;-71
2023/07/31 14:41:36;;;;;;;4.05;2.30;;;;;;;;;;5072660;28;20036;-70
2023/07/31 14:44:03;;;;;;;4.57;2.30;;;;;;;;;;5091573;28;20047;-71
2023/07/31 14:46:30;;;;;;;4.72;1.90;;;;;;;;;;5073301;28;20024;-69
2023/07/31 14:48:57;;;;;;;3.85;2.20;;;;;;;;;;5090984;28;20413;-69
2023/07/31 14:51:23;;;;;;;2.58;1.83;;;;;;;;;;5072890;28;20035;-69
2023/07/31 14:53:49;;;;;;;4.18;2.15;;;;;;;;;;5072420;28;20126;-70
2023/07/31 14:56:15;;;;;;;4.65;2.10;;;;;;;;;;5090720;28;20044;-70
2023/07/31 14:58:41;;;;;;;3.70;2.03;;;;;;;;;;5090282;28;20047;-70
2023/07/31 15:01:07;;;;;;;2.97;1.98;;;;;;;;;;5090220;28;20089;-70
2023/07/31 15:03:33;;;;;;;4.80;1.83;;;;;;;;;;5090447;28;20032;-69
2023/07/31 15:06:00;;;;;;;5.55;1.92;;;;;;;;;;5071698;28;20438;-68
2023/07/31 15:08:26;;;;;;;3.47;2.20;;;;;;;;;;5090560;28;20024;-68
2023/07/31 15:10:57;;;;;;;3.97;1.90;;;;;;;;;;5085469;28;20086;-68
2023/07/31 15:13:23;;;;;;;;;;;;;;;;;;5078516;28;20433;-69